Terminal Aerodrome Forecast
Issued by NWS

Home | Current Version | Previous Version | Text Only | Print | Product List | Glossary On
Versions: 1 2 3 4 5 6 7 8 9 10 11 12 13 14 15
076
FTUS44 KLZK 272330
TAFPBF
TAF
KPBF 272330Z 2800/2824 29003KT P6SM SKC
     FM281400 25006KT P6SM SKC
     FM282230 29010KT P6SM SKC=

USA.gov is the U.S. government's official web portal to all federal, state and local government web resources and services.